Time;durP1;ratioP1;P1;durP2;ratioP2;P2;SDS_P1;SDS_P2;PMS_P1;PMS_P2;Temp;Humidity;BMP_temperature;BMP_pressure;BME280_temperature;BME280_humidity;BME280_pressure;Samples;Min_cycle;Max_cycle;Signal;HPM_P1;HPM_P2
2022/07/16 00:01:23;;;;;;;3.75;0.70;;;;;;;;;;5007962;28;20692;-74
2022/07/16 00:03:51;;;;;;;2.38;0.73;;;;;;;;;;5019828;28;20050;-73
2022/07/16 00:06:19;;;;;;;2.60;0.82;;;;;;;;;;5002803;28;20046;-73
2022/07/16 00:08:47;;;;;;;2.90;0.65;;;;;;;;;;5005037;28;20132;-73
2022/07/16 00:11:15;;;;;;;6.30;0.80;;;;;;;;;;5008205;28;20140;-73
2022/07/16 00:13:42;;;;;;;5.22;0.93;;;;;;;;;;5008139;28;20104;-75
2022/07/16 00:16:10;;;;;;;6.75;0.68;;;;;;;;;;5005238;28;20054;-73
2022/07/16 00:21:24;;;;;;;3.60;0.88;;;;;;;;;;5010550;28;20168;-73
2022/07/16 00:23:51;;;;;;;5.22;0.63;;;;;;;;;;5003535;28;20060;-73
2022/07/16 00:26:20;;;;;;;3.13;0.80;;;;;;;;;;5006511;28;20056;-73
2022/07/16 00:28:47;;;;;;;4.43;0.93;;;;;;;;;;5008157;28;20800;-73
2022/07/16 00:31:15;;;;;;;9.35;0.73;;;;;;;;;;5007344;28;20077;-74
2022/07/16 00:33:42;;;;;;;3.35;0.90;;;;;;;;;;5005839;28;20780;-74
2022/07/16 00:36:09;;;;;;;2.95;0.70;;;;;;;;;;5018874;28;20672;-74
2022/07/16 00:38:37;;;;;;;8.98;1.00;;;;;;;;;;5009445;28;20490;-73
2022/07/16 00:41:04;;;;;;;9.05;1.17;;;;;;;;;;5013785;28;20133;-73
2022/07/16 00:43:44;;;;;;;4.50;0.70;;;;;;;;;;5005764;28;20137;-74
2022/07/16 00:46:11;;;;;;;2.03;0.73;;;;;;;;;;5013409;28;20076;-73
2022/07/16 00:48:38;;;;;;;3.30;1.20;;;;;;;;;;5006554;28;20046;-73
2022/07/16 00:51:06;;;;;;;6.43;2.03;;;;;;;;;;5007574;28;20065;-73
2022/07/16 00:53:35;;;;;;;2.25;1.00;;;;;;;;;;5006547;28;20477;-73
2022/07/16 00:56:03;;;;;;;8.10;1.55;;;;;;;;;;4998864;28;20129;-73
2022/07/16 00:58:30;;;;;;;14.40;1.60;;;;;;;;;;4990393;28;20085;-73
2022/07/16 01:00:57;;;;;;;4.45;1.20;;;;;;;;;;5007520;28;20081;-73
2022/07/16 01:03:24;;;;;;;3.28;1.33;;;;;;;;;;5005832;28;20077;-73
2022/07/16 01:05:52;;;;;;;4.65;1.10;;;;;;;;;;5026439;28;20402;-73
2022/07/16 01:08:20;;;;;;;10.82;1.50;;;;;;;;;;5006091;28;20542;-73
2022/07/16 01:10:47;;;;;;;3.10;0.95;;;;;;;;;;5006814;28;20494;-73
2022/07/16 01:13:15;;;;;;;4.43;1.20;;;;;;;;;;5009280;28;20471;-73
2022/07/16 01:15:42;;;;;;;9.35;1.38;;;;;;;;;;5004783;28;20054;-73
2022/07/16 01:18:09;;;;;;;4.68;1.20;;;;;;;;;;5010567;28;20506;-73
2022/07/16 01:20:37;;;;;;;5.50;1.38;;;;;;;;;;5006776;28;20409;-73
2022/07/16 01:23:04;;;;;;;1.88;1.00;;;;;;;;;;5011449;28;20536;-73
2022/07/16 01:25:32;;;;;;;4.97;1.20;;;;;;;;;;5004890;28;20133;-73
2022/07/16 01:27:59;;;;;;;7.47;1.30;;;;;;;;;;5002466;28;20042;-73
2022/07/16 01:30:26;;;;;;;8.32;1.77;;;;;;;;;;5006584;28;20132;-77
2022/07/16 01:32:53;;;;;;;5.05;1.60;;;;;;;;;;5016388;28;20139;-77
2022/07/16 01:35:21;;;;;;;4.03;1.27;;;;;;;;;;5012444;28;20137;-77
2022/07/16 01:37:48;;;;;;;8.43;2.10;;;;;;;;;;5002789;28;20076;-77
2022/07/16 01:40:15;;;;;;;6.00;1.63;;;;;;;;;;5019784;28;20080;-77
2022/07/16 01:42:43;;;;;;;4.57;1.75;;;;;;;;;;5015761;28;20115;-77
2022/07/16 01:45:11;;;;;;;3.63;1.67;;;;;;;;;;5012458;28;20112;-77
2022/07/16 01:47:38;;;;;;;8.88;1.95;;;;;;;;;;5012800;28;20080;-77
2022/07/16 01:50:06;;;;;;;8.85;1.83;;;;;;;;;;5013145;28;20591;-78
2022/07/16 01:52:33;;;;;;;3.28;1.42;;;;;;;;;;5021305;28;20125;-78
2022/07/16 01:55:00;;;;;;;6.20;1.92;;;;;;;;;;5016436;28;20132;-78
2022/07/16 01:57:27;;;;;;;5.57;1.77;;;;;;;;;;5013436;28;20131;-77
2022/07/16 01:59:55;;;;;;;5.78;2.13;;;;;;;;;;5020358;28;20084;-78
2022/07/16 02:02:22;;;;;;;8.75;2.13;;;;;;;;;;5022849;28;20073;-78
2022/07/16 02:04:49;;;;;;;8.95;1.85;;;;;;;;;;5017878;28;20494;-77
2022/07/16 02:07:18;;;;;;;5.78;1.63;;;;;;;;;;5011843;28;20527;-77
2022/07/16 02:09:45;;;;;;;5.00;1.90;;;;;;;;;;5017165;28;20085;-74
2022/07/16 02:12:12;;;;;;;4.32;2.58;;;;;;;;;;5001201;28;20221;-74
2022/07/16 02:14:40;;;;;;;4.95;2.10;;;;;;;;;;5008136;28;20046;-74
2022/07/16 02:17:07;;;;;;;7.35;2.25;;;;;;;;;;5002448;28;20064;-74
2022/07/16 02:19:35;;;;;;;10.90;2.15;;;;;;;;;;5013539;28;20053;-74
2022/07/16 02:22:03;;;;;;;5.00;1.92;;;;;;;;;;5014867;28;20538;-74
2022/07/16 02:24:30;;;;;;;8.13;2.25;;;;;;;;;;5007667;28;20160;-74
2022/07/16 02:26:57;;;;;;;4.47;2.22;;;;;;;;;;5005266;28;20133;-74
2022/07/16 02:29:25;;;;;;;3.80;2.15;;;;;;;;;;5014499;28;20071;-73
2022/07/16 02:31:53;;;;;;;4.25;1.73;;;;;;;;;;5014980;28;20050;-74
2022/07/16 02:34:20;;;;;;;7.05;2.33;;;;;;;;;;5012532;28;20144;-73
2022/07/16 02:36:47;;;;;;;16.33;4.18;;;;;;;;;;5015478;28;20069;-74
2022/07/16 02:39:14;;;;;;;7.65;2.95;;;;;;;;;;5009967;28;20144;-74
2022/07/16 02:41:42;;;;;;;7.28;2.20;;;;;;;;;;5011030;28;20082;-74
2022/07/16 02:44:09;;;;;;;4.75;2.35;;;;;;;;;;5007754;28;20145;-74
2022/07/16 02:46:36;;;;;;;9.70;2.63;;;;;;;;;;5011308;28;20042;-74
2022/07/16 02:49:04;;;;;;;11.45;2.38;;;;;;;;;;5015373;28;20108;-74
2022/07/16 02:51:31;;;;;;;9.45;2.63;;;;;;;;;;5015219;28;20077;-74
2022/07/16 02:53:58;;;;;;;7.32;2.78;;;;;;;;;;5013381;28;20085;-74
2022/07/16 02:56:26;;;;;;;14.40;3.55;;;;;;;;;;5005740;28;20141;-74
2022/07/16 02:58:53;;;;;;;12.63;3.45;;;;;;;;;;5012366;28;20160;-74
2022/07/16 03:01:20;;;;;;;21.20;4.57;;;;;;;;;;5018202;28;20136;-74
2022/07/16 03:03:48;;;;;;;13.65;3.22;;;;;;;;;;5020473;28;20153;-73
2022/07/16 03:06:15;;;;;;;7.20;3.22;;;;;;;;;;5011832;28;20054;-73
2022/07/16 03:08:43;;;;;;;8.15;3.17;;;;;;;;;;5014645;28;20128;-74
2022/07/16 03:11:10;;;;;;;11.23;3.08;;;;;;;;;;5012765;28;20761;-74
2022/07/16 03:13:38;;;;;;;12.38;3.25;;;;;;;;;;5011426;28;20053;-74
2022/07/16 03:16:05;;;;;;;8.15;3.08;;;;;;;;;;5006932;28;20057;-74
2022/07/16 03:18:32;;;;;;;5.65;2.78;;;;;;;;;;5022928;28;20085;-74
2022/07/16 03:21:00;;;;;;;10.55;4.10;;;;;;;;;;5018291;28;20788;-74
2022/07/16 03:23:27;;;;;;;8.52;3.65;;;;;;;;;;5009469;28;20046;-74
2022/07/16 03:25:54;;;;;;;7.65;3.10;;;;;;;;;;4997104;28;20054;-74
2022/07/16 03:28:22;;;;;;;9.10;3.13;;;;;;;;;;5008515;28;20132;-74
2022/07/16 03:30:49;;;;;;;9.13;3.40;;;;;;;;;;4992984;28;20130;-74
2022/07/16 03:33:16;;;;;;;11.73;4.15;;;;;;;;;;5012326;28;20129;-74
2022/07/16 03:35:48;;;;;;;9.80;4.03;;;;;;;;;;5009648;28;20072;-74
2022/07/16 03:41:02;;;;;;;9.57;4.70;;;;;;;;;;5012693;28;20383;-74
2022/07/16 03:43:29;;;;;;;13.40;4.25;;;;;;;;;;5001454;28;20447;-74
2022/07/16 03:45:56;;;;;;;8.07;4.25;;;;;;;;;;4997995;28;20104;-74
2022/07/16 03:48:24;;;;;;;7.03;4.32;;;;;;;;;;5005919;28;20554;-74
2022/07/16 03:50:51;;;;;;;11.57;4.25;;;;;;;;;;4996196;28;20060;-74
2022/07/16 03:53:18;;;;;;;8.32;4.35;;;;;;;;;;5011481;28;20141;-74
2022/07/16 03:55:46;;;;;;;13.23;4.68;;;;;;;;;;4999017;28;20165;-74
2022/07/16 03:58:13;;;;;;;10.60;4.93;;;;;;;;;;5001189;28;20081;-75
2022/07/16 04:00:40;;;;;;;10.27;4.25;;;;;;;;;;5003287;28;20129;-74
2022/07/16 04:03:07;;;;;;;8.88;4.68;;;;;;;;;;5006006;28;20093;-74
2022/07/16 04:05:35;;;;;;;11.18;5.05;;;;;;;;;;5032239;22;20062;-78
2022/07/16 04:08:02;;;;;;;13.70;5.47;;;;;;;;;;5044983;28;20132;-78
2022/07/16 04:10:30;;;;;;;9.25;4.85;;;;;;;;;;5038374;28;20482;-78
2022/07/16 04:12:57;;;;;;;14.63;4.97;;;;;;;;;;5024067;28;20132;-77
2022/07/16 04:15:24;;;;;;;9.80;5.53;;;;;;;;;;5029787;28;20447;-78
2022/07/16 04:17:53;;;;;;;13.48;6.22;;;;;;;;;;5031109;28;20537;-78
2022/07/16 04:20:20;;;;;;;12.93;5.47;;;;;;;;;;5032094;28;20060;-79
2022/07/16 04:22:47;;;;;;;8.82;5.03;;;;;;;;;;5046978;28;20135;-79
2022/07/16 04:25:15;;;;;;;11.02;5.13;;;;;;;;;;5031331;28;20508;-79
2022/07/16 04:27:45;;;;;;;10.23;5.88;;;;;;;;;;5044115;28;20054;-78
2022/07/16 04:30:14;;;;;;;10.57;4.85;;;;;;;;;;5039368;28;20128;-76
2022/07/16 04:32:42;;;;;;;8.07;5.18;;;;;;;;;;5053732;28;20066;-77
2022/07/16 04:35:12;;;;;;;10.43;5.20;;;;;;;;;;5036925;28;20390;-79
2022/07/16 04:37:39;;;;;;;8.93;5.28;;;;;;;;;;5036842;28;20083;-76
2022/07/16 04:40:07;;;;;;;8.50;4.45;;;;;;;;;;5032151;28;20057;-78
2022/07/16 04:42:39;;;;;;;7.03;4.93;;;;;;;;;;5031069;28;20076;-78
2022/07/16 04:45:07;;;;;;;11.60;4.70;;;;;;;;;;5031005;28;20533;-78
2022/07/16 04:47:34;;;;;;;8.93;4.45;;;;;;;;;;5045554;28;20125;-77
2022/07/16 04:50:01;;;;;;;7.95;4.82;;;;;;;;;;5037608;28;20526;-79
2022/07/16 04:52:30;;;;;;;7.57;4.63;;;;;;;;;;5030042;28;20073;-78
2022/07/16 04:54:58;;;;;;;7.20;4.22;;;;;;;;;;5030656;28;20137;-78
2022/07/16 04:57:26;;;;;;;7.72;4.30;;;;;;;;;;5030300;28;20089;-77
2022/07/16 04:59:53;;;;;;;7.15;4.18;;;;;;;;;;5029230;28;20073;-79
2022/07/16 05:05:07;;;;;;;8.88;4.40;;;;;;;;;;5031771;28;20119;-80
2022/07/16 05:07:35;;;;;;;6.72;4.20;;;;;;;;;;5038568;28;20072;-79
2022/07/16 05:10:02;;;;;;;6.30;3.70;;;;;;;;;;5032220;28;20136;-79
2022/07/16 05:12:30;;;;;;;5.05;3.38;;;;;;;;;;5031173;28;20077;-78
2022/07/16 05:14:57;;;;;;;5.97;4.05;;;;;;;;;;5032252;28;20045;-78
2022/07/16 05:17:24;;;;;;;4.57;2.95;;;;;;;;;;5033537;28;20128;-74
2022/07/16 05:19:52;;;;;;;5.85;2.50;;;;;;;;;;5029028;28;20110;-74
2022/07/16 05:22:19;;;;;;;19.58;3.10;;;;;;;;;;5026639;28;20072;-74
2022/07/16 05:24:46;;;;;;;9.13;2.50;;;;;;;;;;5026825;28;20084;-74
2022/07/16 05:27:14;;;;;;;5.45;2.50;;;;;;;;;;5026183;28;20136;-74
2022/07/16 05:29:41;;;;;;;5.53;1.90;;;;;;;;;;5026420;28;20129;-75
2022/07/16 05:32:08;;;;;;;4.85;2.13;;;;;;;;;;5026391;28;20528;-74
2022/07/16 05:34:35;;;;;;;11.45;2.40;;;;;;;;;;5026236;28;20528;-74
2022/07/16 05:37:03;;;;;;;5.68;2.17;;;;;;;;;;5025000;28;20080;-74
2022/07/16 05:39:30;;;;;;;7.05;2.40;;;;;;;;;;5020458;28;20095;-74
2022/07/16 05:41:58;;;;;;;7.40;2.28;;;;;;;;;;5027440;28;20140;-75
2022/07/16 05:44:25;;;;;;;3.83;2.08;;;;;;;;;;5041775;28;20045;-75
2022/07/16 05:46:52;;;;;;;6.45;1.98;;;;;;;;;;5017957;28;20127;-74
2022/07/16 05:49:20;;;;;;;4.70;2.60;;;;;;;;;;5025269;28;20498;-75
2022/07/16 05:51:48;;;;;;;6.07;2.60;;;;;;;;;;5032615;23;20045;-74
2022/07/16 05:54:15;;;;;;;6.25;2.88;;;;;;;;;;5024398;28;20126;-74
2022/07/16 05:56:42;;;;;;;8.60;2.67;;;;;;;;;;5022749;28;20124;-74
2022/07/16 05:59:10;;;;;;;6.88;2.30;;;;;;;;;;5010591;28;20132;-74
2022/07/16 06:01:37;;;;;;;18.05;2.85;;;;;;;;;;5013913;28;20528;-77
2022/07/16 06:04:04;;;;;;;7.03;2.28;;;;;;;;;;5028303;28;20119;-77
2022/07/16 06:06:32;;;;;;;4.32;2.05;;;;;;;;;;5029066;28;20069;-75
2022/07/16 06:08:59;;;;;;;10.00;2.45;;;;;;;;;;5028370;28;20149;-78
2022/07/16 06:11:27;;;;;;;11.88;2.85;;;;;;;;;;5011779;28;20061;-74
2022/07/16 06:13:55;;;;;;;10.70;2.72;;;;;;;;;;5039665;28;20421;-76
2022/07/16 06:16:22;;;;;;;13.43;2.88;;;;;;;;;;5012678;28;20582;-77
2022/07/16 06:18:50;;;;;;;7.05;2.17;;;;;;;;;;5021155;28;20050;-76
2022/07/16 06:21:18;;;;;;;6.10;2.38;;;;;;;;;;5026745;28;20167;-76
2022/07/16 06:23:45;;;;;;;12.23;2.63;;;;;;;;;;5029391;28;20045;-76
2022/07/16 06:26:12;;;;;;;11.02;3.00;;;;;;;;;;5020404;28;20084;-77
2022/07/16 06:28:39;;;;;;;4.38;1.77;;;;;;;;;;5029773;28;20124;-77
2022/07/16 06:31:07;;;;;;;6.85;2.03;;;;;;;;;;5028223;28;20125;-77
2022/07/16 06:33:34;;;;;;;5.63;1.75;;;;;;;;;;5024389;28;20482;-76
2022/07/16 06:36:01;;;;;;;13.10;2.03;;;;;;;;;;5015039;28;20084;-75
2022/07/16 06:38:29;;;;;;;13.40;2.55;;;;;;;;;;5015434;28;20090;-76
2022/07/16 06:40:56;;;;;;;6.47;2.00;;;;;;;;;;5020237;28;20453;-77
2022/07/16 06:43:23;;;;;;;9.32;2.17;;;;;;;;;;5027276;28;20135;-77
2022/07/16 06:45:51;;;;;;;9.23;2.10;;;;;;;;;;5036244;28;20124;-78
2022/07/16 06:48:18;;;;;;;8.63;2.55;;;;;;;;;;5027472;28;20099;-78
2022/07/16 06:50:46;;;;;;;7.32;1.48;;;;;;;;;;5025842;28;20038;-77
2022/07/16 06:53:13;;;;;;;9.02;1.58;;;;;;;;;;5025415;28;20487;-77
2022/07/16 06:55:40;;;;;;;7.18;1.83;;;;;;;;;;5024454;28;20291;-78
2022/07/16 06:58:09;;;;;;;11.48;1.77;;;;;;;;;;5024494;28;20977;-75
2022/07/16 07:00:36;;;;;;;5.38;1.50;;;;;;;;;;5028123;28;20081;-76
2022/07/16 07:03:03;;;;;;;7.45;1.88;;;;;;;;;;5020432;28;20467;-77
2022/07/16 07:05:31;;;;;;;4.43;1.73;;;;;;;;;;5018413;28;20061;-76
2022/07/16 07:07:58;;;;;;;7.75;1.42;;;;;;;;;;5025117;28;20049;-76
2022/07/16 07:10:26;;;;;;;11.38;2.95;;;;;;;;;;5022164;28;20045;-74
2022/07/16 07:12:53;;;;;;;4.00;1.20;;;;;;;;;;5020425;28;20049;-75
2022/07/16 07:15:20;;;;;;;7.13;1.50;;;;;;;;;;5022141;28;20073;-77
2022/07/16 07:17:48;;;;;;;6.70;1.90;;;;;;;;;;5022673;28;20992;-77
2022/07/16 07:20:15;;;;;;;3.92;1.35;;;;;;;;;;5024109;28;20054;-77
2022/07/16 07:22:49;;;;;;;6.78;1.60;;;;;;;;;;5036359;28;20132;-77
2022/07/16 07:25:17;;;;;;;6.35;1.02;;;;;;;;;;5026312;28;20553;-75
2022/07/16 07:27:44;;;;;;;6.60;1.58;;;;;;;;;;5019630;28;20128;-77
2022/07/16 07:30:12;;;;;;;10.32;1.50;;;;;;;;;;5036962;28;20077;-76
2022/07/16 07:32:39;;;;;;;5.45;1.02;;;;;;;;;;5024785;28;20103;-76
2022/07/16 07:35:07;;;;;;;8.60;1.23;;;;;;;;;;5019816;28;20060;-77
2022/07/16 07:37:35;;;;;;;3.85;1.00;;;;;;;;;;5025533;28;20104;-76
2022/07/16 07:40:03;;;;;;;6.60;1.15;;;;;;;;;;5023817;28;20103;-78
2022/07/16 07:42:31;;;;;;;6.10;1.05;;;;;;;;;;5021257;28;20061;-78
2022/07/16 07:44:58;;;;;;;8.77;1.10;;;;;;;;;;5012778;28;20084;-77
2022/07/16 07:47:27;;;;;;;6.57;0.90;;;;;;;;;;5019344;28;20053;-73
2022/07/16 07:49:56;;;;;;;5.43;0.70;;;;;;;;;;5016155;28;20701;-74
2022/07/16 07:52:23;;;;;;;3.65;1.10;;;;;;;;;;5020554;28;20634;-79
2022/07/16 07:54:51;;;;;;;6.82;0.90;;;;;;;;;;5023362;28;20563;-73
2022/07/16 07:57:18;;;;;;;7.32;0.88;;;;;;;;;;5016020;28;20715;-75
2022/07/16 07:59:45;;;;;;;7.25;1.00;;;;;;;;;;5023425;28;20574;-76
2022/07/16 08:02:13;;;;;;;11.48;1.17;;;;;;;;;;5016562;28;20164;-74
2022/07/16 08:04:40;;;;;;;6.13;0.77;;;;;;;;;;5036459;28;20159;-75
2022/07/16 08:07:09;;;;;;;2.25;0.70;;;;;;;;;;5011943;28;20053;-74
2022/07/16 08:09:36;;;;;;;6.57;1.08;;;;;;;;;;5018327;28;20074;-74
2022/07/16 08:12:03;;;;;;;5.78;1.08;;;;;;;;;;5023915;28;20124;-73
2022/07/16 08:14:31;;;;;;;9.05;0.95;;;;;;;;;;5017556;28;20183;-74
2022/07/16 08:16:59;;;;;;;4.32;0.80;;;;;;;;;;5022122;28;20050;-74
2022/07/16 08:19:26;;;;;;;14.63;1.73;;;;;;;;;;5019021;28;20614;-76
2022/07/16 08:21:54;;;;;;;4.97;0.93;;;;;;;;;;5034258;28;20140;-74
2022/07/16 08:27:08;;;;;;;6.43;1.20;;;;;;;;;;5025258;28;20128;-80
2022/07/16 08:29:35;;;;;;;9.48;1.27;;;;;;;;;;5016934;28;20124;-81
2022/07/16 08:32:03;;;;;;;10.07;1.25;;;;;;;;;;5028803;28;20200;-83
2022/07/16 08:34:30;;;;;;;4.82;1.08;;;;;;;;;;5029046;28;20097;-80
2022/07/16 08:36:57;;;;;;;1.90;0.60;;;;;;;;;;5032214;28;20049;-82
2022/07/16 08:39:25;;;;;;;7.30;1.10;;;;;;;;;;5030132;28;20104;-81
2022/07/16 08:41:53;;;;;;;5.80;0.90;;;;;;;;;;5035189;22;20076;-76
2022/07/16 08:44:21;;;;;;;9.18;1.20;;;;;;;;;;5005360;28;20081;-79
2022/07/16 08:46:49;;;;;;;4.40;1.17;;;;;;;;;;5020141;28;20946;-74
2022/07/16 08:49:17;;;;;;;3.60;1.00;;;;;;;;;;5006114;28;20173;-74
2022/07/16 08:51:45;;;;;;;10.02;1.05;;;;;;;;;;5007509;28;20053;-75
2022/07/16 08:54:20;;;;;;;9.05;0.80;;;;;;;;;;5020681;28;20832;-75
2022/07/16 08:56:49;;;;;;;6.27;1.10;;;;;;;;;;5001847;28;20432;-75
2022/07/16 08:59:17;;;;;;;7.63;1.00;;;;;;;;;;4994573;28;20140;-75
2022/07/16 09:01:44;;;;;;;7.50;0.98;;;;;;;;;;5006618;28;20046;-75
2022/07/16 09:04:11;;;;;;;6.13;1.05;;;;;;;;;;5020466;28;20117;-76
2022/07/16 09:06:39;;;;;;;1.88;0.70;;;;;;;;;;5008763;28;20387;-76
2022/07/16 09:09:06;;;;;;;8.10;1.13;;;;;;;;;;5008107;28;20522;-76
2022/07/16 09:11:35;;;;;;;5.50;1.00;;;;;;;;;;5007013;28;20139;-75
2022/07/16 09:14:05;;;;;;;5.22;0.93;;;;;;;;;;5021823;28;20693;-76
2022/07/16 09:16:37;;;;;;;4.78;0.95;;;;;;;;;;5000052;28;20069;-76
2022/07/16 09:19:08;;;;;;;11.60;1.10;;;;;;;;;;5008948;28;20053;-76
2022/07/16 09:21:35;;;;;;;10.30;1.15;;;;;;;;;;5023670;28;20153;-76
2022/07/16 09:24:04;;;;;;;4.25;0.80;;;;;;;;;;5009751;28;20050;-76
2022/07/16 09:26:31;;;;;;;6.95;1.10;;;;;;;;;;5007748;28;20133;-75
2022/07/16 09:29:01;;;;;;;7.55;0.95;;;;;;;;;;5008601;28;20160;-76
2022/07/16 09:31:35;;;;;;;3.30;0.77;;;;;;;;;;5008605;28;20053;-75
2022/07/16 09:34:02;;;;;;;5.65;1.05;;;;;;;;;;5009554;28;20084;-83
2022/07/16 09:36:30;;;;;;;4.68;1.17;;;;;;;;;;5017028;28;20049;-81
2022/07/16 09:38:57;;;;;;;22.65;2.80;;;;;;;;;;5008634;28;20069;-78
2022/07/16 09:41:24;;;;;;;4.72;1.02;;;;;;;;;;5010699;28;20100;-78
2022/07/16 09:43:52;;;;;;;7.72;1.08;;;;;;;;;;5017717;28;20172;-77
2022/07/16 09:46:20;;;;;;;7.05;1.20;;;;;;;;;;5026873;28;20498;-78
2022/07/16 09:48:48;;;;;;;3.45;0.90;;;;;;;;;;5023123;28;20052;-80
2022/07/16 09:51:18;;;;;;;8.57;1.05;;;;;;;;;;5005315;28;20154;-77
2022/07/16 09:53:47;;;;;;;6.47;0.90;;;;;;;;;;5000343;28;20129;-77
2022/07/16 09:56:16;;;;;;;7.13;1.10;;;;;;;;;;5010508;28;20046;-76
2022/07/16 09:58:54;;;;;;;4.88;1.15;;;;;;;;;;5010763;28;20053;-77
2022/07/16 10:01:24;;;;;;;6.72;0.93;;;;;;;;;;5010777;28;20137;-80
2022/07/16 10:03:52;;;;;;;9.45;1.90;;;;;;;;;;5016397;28;20132;-79
2022/07/16 10:06:19;;;;;;;5.35;1.25;;;;;;;;;;5015911;28;20056;-84
2022/07/16 10:08:47;;;;;;;6.25;1.42;;;;;;;;;;5007177;28;20073;-82
2022/07/16 10:11:14;;;;;;;7.22;1.40;;;;;;;;;;5006656;28;20073;-82
2022/07/16 10:13:44;;;;;;;7.05;0.90;;;;;;;;;;5006531;28;20141;-83
2022/07/16 10:16:12;;;;;;;7.03;1.08;;;;;;;;;;5002151;28;20173;-77
2022/07/16 10:18:46;;;;;;;12.65;1.23;;;;;;;;;;5008248;28;20073;-76
2022/07/16 10:21:21;;;;;;;2.70;0.97;;;;;;;;;;5017444;23;20065;-83
2022/07/16 10:23:49;;;;;;;;;;;;;;;;;;5029922;28;20430;-82
2022/07/16 10:26:18;;;;;;;6.68;1.58;;;;;;;;;;5029735;28;19964;-81
2022/07/16 10:28:48;;;;;;;6.13;1.00;;;;;;;;;;5029271;28;20482;-82
2022/07/16 10:34:40;;;;;;;2.67;0.90;;;;;;;;;;5016399;28;20053;-83
2022/07/16 10:37:25;;;;;;;2.15;0.80;;;;;;;;;;5031488;28;20069;-85
2022/07/16 10:40:04;;;;;;;4.00;0.80;;;;;;;;;;5034699;28;20057;-78
2022/07/16 10:42:31;;;;;;;7.38;1.15;;;;;;;;;;5020742;28;20537;-77
2022/07/16 10:44:59;;;;;;;2.92;0.70;;;;;;;;;;5021738;28;20045;-75
2022/07/16 10:47:46;;;;;;;4.30;0.95;;;;;;;;;;5021255;28;20056;-77
2022/07/16 10:50:18;;;;;;;5.68;1.10;;;;;;;;;;5020746;28;20132;-74
2022/07/16 10:52:47;;;;;;;4.13;0.82;;;;;;;;;;5017864;28;20108;-76
2022/07/16 10:55:18;;;;;;;4.55;1.40;;;;;;;;;;5015785;28;20049;-75
2022/07/16 10:57:46;;;;;;;3.55;1.05;;;;;;;;;;5018633;28;20081;-76
2022/07/16 11:00:13;;;;;;;6.47;0.90;;;;;;;;;;5024796;28;20123;-76
2022/07/16 11:02:42;;;;;;;4.20;1.00;;;;;;;;;;5019879;28;20077;-76
2022/07/16 11:05:30;;;;;;;4.70;0.82;;;;;;;;;;5014384;28;20053;-76
2022/07/16 11:08:07;;;;;;;3.45;0.80;;;;;;;;;;5023208;28;20502;-75
2022/07/16 11:10:35;;;;;;;4.30;1.08;;;;;;;;;;5015168;28;20033;-75
2022/07/16 11:13:02;;;;;;;4.00;0.85;;;;;;;;;;5022745;28;20525;-76
2022/07/16 11:15:30;;;;;;;8.43;1.00;;;;;;;;;;5023641;28;20052;-75
2022/07/16 11:17:57;;;;;;;7.65;0.73;;;;;;;;;;5020030;28;20085;-75
2022/07/16 11:20:34;;;;;;;7.13;1.00;;;;;;;;;;5010333;28;20053;-75
2022/07/16 11:23:05;;;;;;;6.03;1.02;;;;;;;;;;5021121;28;20100;-76
2022/07/16 11:25:32;;;;;;;5.40;0.88;;;;;;;;;;5022135;28;20168;-75
2022/07/16 11:28:03;;;;;;;9.02;2.65;;;;;;;;;;5024808;28;20553;-76
2022/07/16 11:30:31;;;;;;;7.22;1.10;;;;;;;;;;5034915;28;20046;-83
2022/07/16 11:32:58;;;;;;;6.28;0.80;;;;;;;;;;5030995;28;20823;-84
2022/07/16 11:35:25;;;;;;;4.00;0.93;;;;;;;;;;5032282;28;20060;-85
2022/07/16 11:37:59;;;;;;;6.85;1.13;;;;;;;;;;5022322;28;20084;-82
2022/07/16 11:40:35;;;;;;;5.05;0.90;;;;;;;;;;5014610;28;20486;-85
2022/07/16 11:43:03;;;;;;;5.73;0.93;;;;;;;;;;5026650;28;20050;-83
2022/07/16 11:45:58;;;;;;;2.95;0.73;;;;;;;;;;5026638;28;20741;-82
2022/07/16 11:48:35;;;;;;;3.55;0.77;;;;;;;;;;5028640;28;20062;-74
2022/07/16 11:51:07;;;;;;;4.53;1.02;;;;;;;;;;5036969;28;20042;-74
2022/07/16 11:53:37;;;;;;;11.60;1.40;;;;;;;;;;5022347;28;20057;-75
2022/07/16 11:56:05;;;;;;;4.25;1.08;;;;;;;;;;5020542;28;20128;-74
2022/07/16 11:58:33;;;;;;;5.35;0.90;;;;;;;;;;5015622;28;20121;-74
2022/07/16 12:01:01;;;;;;;3.88;0.90;;;;;;;;;;5022567;28;21260;-82
2022/07/16 12:03:28;;;;;;;5.07;1.00;;;;;;;;;;5017982;28;20057;-83
2022/07/16 12:06:00;;;;;;;2.97;1.00;;;;;;;;;;5023380;28;20048;-84
2022/07/16 12:08:28;;;;;;;4.68;1.10;;;;;;;;;;5023219;28;20087;-83
2022/07/16 12:10:59;;;;;;;2.67;0.80;;;;;;;;;;5018180;28;20041;-82
2022/07/16 12:13:27;;;;;;;3.25;0.88;;;;;;;;;;5016926;28;20123;-75
2022/07/16 12:15:55;;;;;;;4.68;0.90;;;;;;;;;;5020955;28;20044;-75
2022/07/16 12:18:23;;;;;;;6.35;1.05;;;;;;;;;;5024104;28;20047;-83
2022/07/16 12:20:51;;;;;;;6.40;0.88;;;;;;;;;;5024024;28;20045;-83
2022/07/16 12:23:32;;;;;;;4.10;1.23;;;;;;;;;;5027643;28;20460;-83
2022/07/16 12:26:04;;;;;;;5.50;0.70;;;;;;;;;;5018282;28;20050;-82
2022/07/16 12:28:33;;;;;;;7.97;1.08;;;;;;;;;;5017455;28;20411;-81
2022/07/16 12:31:01;;;;;;;5.75;0.85;;;;;;;;;;5026167;28;20481;-83
2022/07/16 12:33:30;;;;;;;13.73;2.47;;;;;;;;;;5020471;28;20144;-75
2022/07/16 12:35:59;;;;;;;2.92;0.90;;;;;;;;;;5025752;28;20105;-84
2022/07/16 12:38:44;;;;;;;7.28;1.30;;;;;;;;;;5020846;28;20391;-84
2022/07/16 12:41:12;;;;;;;;;;;;;;;;;;5019683;28;20446;-85
2022/07/16 12:43:40;;;;;;;7.25;1.10;;;;;;;;;;5047765;28;19971;-76
2022/07/16 12:46:09;;;;;;;3.30;0.80;;;;;;;;;;5026045;28;20057;-85
2022/07/16 12:48:42;;;;;;;10.32;1.80;;;;;;;;;;5028334;28;20049;-85
2022/07/16 12:51:11;;;;;;;5.90;1.13;;;;;;;;;;5016480;28;20918;-83
2022/07/16 12:53:38;;;;;;;68.30;7.95;;;;;;;;;;5029697;28;20049;-76
2022/07/16 12:58:52;;;;;;;8.23;1.10;;;;;;;;;;5021194;28;20054;-76
2022/07/16 13:01:22;;;;;;;6.43;1.40;;;;;;;;;;5043513;28;20052;-83
2022/07/16 13:03:49;;;;;;;6.90;0.95;;;;;;;;;;5019934;28;20813;-85
2022/07/16 13:06:18;;;;;;;15.23;1.25;;;;;;;;;;5030334;28;20049;-84
2022/07/16 13:08:45;;;;;;;6.57;0.98;;;;;;;;;;5028514;28;20864;-85
2022/07/16 13:11:13;;;;;;;5.53;0.90;;;;;;;;;;5021638;28;20052;-85
2022/07/16 13:13:41;;;;;;;4.88;1.50;;;;;;;;;;5021092;28;20073;-84
2022/07/16 13:16:08;;;;;;;5.95;1.17;;;;;;;;;;5025359;28;20084;-77
2022/07/16 13:18:36;;;;;;;7.20;1.08;;;;;;;;;;5017895;28;20569;-76
2022/07/16 13:21:04;;;;;;;7.72;1.23;;;;;;;;;;5025431;28;20573;-75
2022/07/16 13:23:33;;;;;;;8.32;1.20;;;;;;;;;;5022308;28;20069;-77
2022/07/16 13:26:02;;;;;;;4.80;1.20;;;;;;;;;;5020989;28;20129;-76
2022/07/16 13:28:29;;;;;;;3.55;0.90;;;;;;;;;;5021109;28;20073;-76
2022/07/16 13:30:57;;;;;;;15.45;1.20;;;;;;;;;;5025661;28;20650;-76
2022/07/16 13:33:24;;;;;;;7.57;1.38;;;;;;;;;;5017861;28;20033;-76
2022/07/16 13:35:52;;;;;;;6.25;1.33;;;;;;;;;;5024869;28;20046;-75
2022/07/16 13:41:08;;;;;;;6.53;1.10;;;;;;;;;;5010606;28;20053;-82
2022/07/16 13:43:35;;;;;;;7.25;1.10;;;;;;;;;;5031430;28;20145;-83
2022/07/16 13:46:04;;;;;;;4.15;1.08;;;;;;;;;;5030324;28;20096;-85
2022/07/16 13:48:31;;;;;;;5.13;0.70;;;;;;;;;;5031564;28;20072;-83
2022/07/16 13:50:59;;;;;;;13.02;1.23;;;;;;;;;;5011477;28;20402;-77
2022/07/16 13:53:26;;;;;;;5.32;0.98;;;;;;;;;;5024055;28;20807;-77
2022/07/16 13:55:53;;;;;;;5.05;0.70;;;;;;;;;;5026293;28;20132;-76
2022/07/16 13:58:22;;;;;;;8.13;1.10;;;;;;;;;;5008490;28;20132;-74
2022/07/16 14:00:54;;;;;;;10.82;1.20;;;;;;;;;;5007603;28;20081;-77
2022/07/16 14:03:25;;;;;;;6.88;0.98;;;;;;;;;;5011131;28;20085;-76
2022/07/16 14:05:58;;;;;;;7.93;1.38;;;;;;;;;;5009754;28;20050;-77
2022/07/16 14:08:25;;;;;;;5.65;1.42;;;;;;;;;;5010646;28;20505;-77
2022/07/16 14:10:53;;;;;;;9.77;1.65;;;;;;;;;;5007973;28;20069;-77
2022/07/16 14:13:22;;;;;;;3.40;0.88;;;;;;;;;;5010613;28;20041;-76
2022/07/16 14:15:51;;;;;;;11.07;1.20;;;;;;;;;;5006671;28;20116;-75
2022/07/16 14:18:18;;;;;;;9.20;1.83;;;;;;;;;;5002843;28;20060;-74
2022/07/16 14:20:46;;;;;;;9.10;1.80;;;;;;;;;;5006324;28;20080;-74
2022/07/16 14:23:14;;;;;;;6.43;1.40;;;;;;;;;;5003024;28;20080;-77
2022/07/16 14:25:41;;;;;;;14.27;1.30;;;;;;;;;;4998658;28;20077;-74
2022/07/16 14:28:10;;;;;;;11.38;1.05;;;;;;;;;;4999199;28;20054;-74
2022/07/16 14:30:38;;;;;;;10.95;1.13;;;;;;;;;;5001213;28;20457;-77
2022/07/16 14:33:05;;;;;;;8.07;1.25;;;;;;;;;;5000598;28;20703;-74
2022/07/16 14:35:33;;;;;;;12.18;1.73;;;;;;;;;;4995391;28;20120;-74
2022/07/16 14:38:00;;;;;;;5.45;0.93;;;;;;;;;;4998459;28;20101;-75
2022/07/16 14:40:28;;;;;;;8.43;1.40;;;;;;;;;;5001176;28;20141;-75
2022/07/16 14:46:21;;;;;;;11.38;1.40;;;;;;;;;;5005187;28;20057;-79
2022/07/16 14:48:48;;;;;;;5.65;1.20;;;;;;;;;;5003845;28;20099;-79
2022/07/16 14:51:15;;;;;;;9.65;1.63;;;;;;;;;;5012361;28;20478;-79
2022/07/16 14:53:43;;;;;;;10.10;1.70;;;;;;;;;;5002300;28;20494;-79
2022/07/16 14:56:10;;;;;;;7.32;1.27;;;;;;;;;;5005196;28;20163;-73
2022/07/16 14:58:37;;;;;;;7.88;0.98;;;;;;;;;;5004812;28;20081;-73
2022/07/16 15:01:05;;;;;;;7.47;1.38;;;;;;;;;;5020632;28;20089;-73
2022/07/16 15:03:32;;;;;;;4.93;1.15;;;;;;;;;;4994112;28;20047;-73
2022/07/16 15:06:00;;;;;;;6.47;1.33;;;;;;;;;;5016015;28;20053;-73
2022/07/16 15:08:27;;;;;;;13.02;2.03;;;;;;;;;;4993996;28;20086;-73
2022/07/16 15:10:54;;;;;;;12.48;1.33;;;;;;;;;;4991669;28;20054;-74